Time;durP1;ratioP1;P1;durP2;ratioP2;P2;SDS_P1;SDS_P2;PMS_P1;PMS_P2;Temp;Humidity;BMP_temperature;BMP_pressure;BME280_temperature;BME280_humidity;BME280_pressure;Samples;Min_cycle;Max_cycle;Signal;HPM_P1;HPM_P2
2023/05/22 00:00:30;;;;;;;8.45;3.30;;;;;;;;;;5095214;28;20032;-65
2023/05/22 00:02:57;;;;;;;5.18;3.20;;;;;;;;;;5095472;28;20464;-66
2023/05/22 00:05:22;;;;;;;4.38;3.13;;;;;;;;;;5094464;28;20378;-64
2023/05/22 00:07:48;;;;;;;5.43;2.85;;;;;;;;;;5095995;28;20035;-69
2023/05/22 00:10:13;;;;;;;12.57;3.65;;;;;;;;;;5094570;28;20059;-64
2023/05/22 00:12:39;;;;;;;6.72;3.22;;;;;;;;;;5093064;28;20028;-65
2023/05/22 00:15:05;;;;;;;4.05;2.78;;;;;;;;;;5094923;28;20031;-65
2023/05/22 00:17:30;;;;;;;6.35;2.85;;;;;;;;;;5094607;28;20080;-65
2023/05/22 00:20:03;;;;;;;5.88;3.50;;;;;;;;;;5095254;28;20088;-65
2023/05/22 00:22:30;;;;;;;5.43;3.38;;;;;;;;;;5095282;28;20034;-65
2023/05/22 00:24:56;;;;;;;4.47;3.17;;;;;;;;;;5095058;28;20373;-65
2023/05/22 00:27:22;;;;;;;7.20;3.22;;;;;;;;;;5093905;28;20040;-64
2023/05/22 00:29:47;;;;;;;4.90;3.10;;;;;;;;;;5095400;28;20194;-65
2023/05/22 00:32:13;;;;;;;4.05;2.90;;;;;;;;;;5095570;28;20458;-65
2023/05/22 00:34:38;;;;;;;4.88;3.20;;;;;;;;;;5094308;28;20051;-64
2023/05/22 00:37:04;;;;;;;6.30;3.33;;;;;;;;;;5094975;28;20020;-64
2023/05/22 00:39:29;;;;;;;4.68;3.10;;;;;;;;;;5111393;28;20477;-65
2023/05/22 00:41:55;;;;;;;8.02;3.20;;;;;;;;;;5115415;28;20358;-65
2023/05/22 00:44:21;;;;;;;5.85;2.95;;;;;;;;;;5115404;28;20047;-65
2023/05/22 00:46:47;;;;;;;7.18;3.20;;;;;;;;;;5114092;28;20036;-65
2023/05/22 00:49:12;;;;;;;5.53;3.28;;;;;;;;;;5115505;28;20085;-66
2023/05/22 00:51:38;;;;;;;5.63;3.30;;;;;;;;;;5115413;28;20030;-66
2023/05/22 00:54:04;;;;;;;5.78;3.00;;;;;;;;;;5115116;28;20024;-65
2023/05/22 00:56:30;;;;;;;5.20;3.40;;;;;;;;;;5115170;28;20360;-66
2023/05/22 00:58:57;;;;;;;5.50;3.08;;;;;;;;;;5115179;28;20125;-65
2023/05/22 01:01:25;;;;;;;4.88;3.50;;;;;;;;;;5114928;28;20046;-64
2023/05/22 01:03:52;;;;;;;5.05;3.20;;;;;;;;;;5115074;28;20019;-64
2023/05/22 01:06:20;;;;;;;7.20;3.25;;;;;;;;;;5114745;28;20110;-65
2023/05/22 01:08:46;;;;;;;8.13;3.30;;;;;;;;;;5114758;28;20026;-71
2023/05/22 01:11:21;;;;;;;4.90;3.25;;;;;;;;;;5115056;28;20380;-67
2023/05/22 01:13:49;;;;;;;4.65;3.13;;;;;;;;;;5114770;28;20024;-65
2023/05/22 01:16:24;;;;;;;6.30;3.55;;;;;;;;;;5114775;27;20023;-65
2023/05/22 01:18:58;;;;;;;5.05;3.60;;;;;;;;;;5114600;28;20063;-65
2023/05/22 01:21:48;;;;;;;4.60;3.15;;;;;;;;;;5112143;28;20457;-65
2023/05/22 01:24:29;;;;;;;;;;;;;;;;;;5094775;28;20107;-67
2023/05/22 01:27:33;;;;;;;3.92;3.08;;;;;;;;;;5094247;28;19962;-65
2023/05/22 01:30:08;;;;;;;4.63;3.20;;;;;;;;;;5084663;28;20503;-66
2023/05/22 01:32:35;;;;;;;5.68;3.05;;;;;;;;;;5094389;28;20052;-65
2023/05/22 01:35:06;;;;;;;5.60;3.60;;;;;;;;;;5093929;28;20393;-65
2023/05/22 01:37:32;;;;;;;5.10;2.88;;;;;;;;;;5093789;28;20381;-66
2023/05/22 01:39:58;;;;;;;8.30;3.58;;;;;;;;;;5114345;28;20020;-65
2023/05/22 01:42:24;;;;;;;7.90;3.10;;;;;;;;;;5114164;28;20134;-65
2023/05/22 01:44:49;;;;;;;7.60;3.28;;;;;;;;;;5113978;27;20092;-68
2023/05/22 01:47:15;;;;;;;4.43;3.20;;;;;;;;;;5114236;28;20070;-65
2023/05/22 01:49:41;;;;;;;6.32;3.42;;;;;;;;;;5114351;28;20050;-66
2023/05/22 01:52:17;;;;;;;7.32;3.60;;;;;;;;;;5113787;28;20129;-65
2023/05/22 01:54:44;;;;;;;7.85;3.50;;;;;;;;;;5114145;28;20097;-76
2023/05/22 01:57:21;;;;;;;5.40;3.40;;;;;;;;;;5114383;28;20551;-77
2023/05/22 01:59:53;;;;;;;6.50;3.50;;;;;;;;;;5113409;28;20134;-76
2023/05/22 02:02:20;;;;;;;5.40;3.20;;;;;;;;;;5094169;28;20055;-76
2023/05/22 02:04:54;;;;;;;7.43;3.67;;;;;;;;;;5094134;28;20020;-76
2023/05/22 02:07:21;;;;;;;5.35;3.13;;;;;;;;;;5094615;28;20028;-76
2023/05/22 02:09:48;;;;;;;11.55;3.90;;;;;;;;;;5096258;28;20028;-74
2023/05/22 02:12:14;;;;;;;6.65;3.60;;;;;;;;;;5093924;28;20028;-75
2023/05/22 02:14:41;;;;;;;6.70;3.60;;;;;;;;;;5097885;28;20028;-75
2023/05/22 02:17:07;;;;;;;5.28;3.70;;;;;;;;;;5095222;28;20111;-75
2023/05/22 02:19:34;;;;;;;7.22;3.42;;;;;;;;;;5095410;28;20043;-76
2023/05/22 02:22:00;;;;;;;6.47;3.22;;;;;;;;;;5096508;28;20038;-75
2023/05/22 02:24:26;;;;;;;5.90;3.60;;;;;;;;;;5096421;28;20110;-75
2023/05/22 02:26:51;;;;;;;7.05;3.47;;;;;;;;;;5097828;28;20079;-76
2023/05/22 02:29:17;;;;;;;7.70;3.80;;;;;;;;;;5098027;28;20024;-74
2023/05/22 02:31:42;;;;;;;7.63;3.28;;;;;;;;;;5096584;28;20024;-75
2023/05/22 02:34:07;;;;;;;5.18;3.50;;;;;;;;;;5095912;28;20355;-75
2023/05/22 02:36:33;;;;;;;7.35;3.95;;;;;;;;;;5096615;28;20382;-77
2023/05/22 02:38:59;;;;;;;5.22;3.33;;;;;;;;;;5109304;28;20051;-76
2023/05/22 02:41:24;;;;;;;7.32;3.35;;;;;;;;;;5116898;28;20086;-76
2023/05/22 02:43:50;;;;;;;5.70;3.78;;;;;;;;;;5116543;28;20044;-75
2023/05/22 02:46:15;;;;;;;7.78;3.53;;;;;;;;;;5118159;28;20027;-74
2023/05/22 02:48:40;;;;;;;6.10;3.35;;;;;;;;;;5116673;28;20051;-77
2023/05/22 02:51:06;;;;;;;5.85;3.67;;;;;;;;;;5114970;28;20461;-77
2023/05/22 02:53:34;;;;;;;7.18;3.72;;;;;;;;;;5116327;28;20065;-76
2023/05/22 02:55:59;;;;;;;7.05;4.30;;;;;;;;;;5115515;28;20032;-77
2023/05/22 02:58:25;;;;;;;6.90;4.70;;;;;;;;;;5119303;28;20027;-75
2023/05/22 03:00:52;;;;;;;7.40;4.03;;;;;;;;;;5119647;28;20027;-77
2023/05/22 03:03:18;;;;;;;5.43;3.75;;;;;;;;;;5116817;28;20019;-76
2023/05/22 03:05:44;;;;;;;6.82;3.50;;;;;;;;;;5115543;28;20135;-76
2023/05/22 03:08:10;;;;;;;5.85;3.63;;;;;;;;;;5118079;28;20031;-77
2023/05/22 03:10:36;;;;;;;5.65;3.35;;;;;;;;;;5115100;28;20548;-77
2023/05/22 03:13:01;;;;;;;7.15;3.65;;;;;;;;;;5116660;28;20037;-74
2023/05/22 03:15:27;;;;;;;8.07;3.40;;;;;;;;;;5117095;28;20465;-77
2023/05/22 03:17:52;;;;;;;9.48;3.90;;;;;;;;;;5117760;28;20024;-75
2023/05/22 03:20:18;;;;;;;5.32;3.42;;;;;;;;;;5115431;28;20016;-70
2023/05/22 03:22:44;;;;;;;13.48;3.75;;;;;;;;;;5103120;28;20027;-76
2023/05/22 03:25:10;;;;;;;8.07;3.60;;;;;;;;;;5101489;28;20120;-77
2023/05/22 03:27:37;;;;;;;5.47;3.60;;;;;;;;;;5099849;28;20020;-70
2023/05/22 03:30:02;;;;;;;7.90;3.72;;;;;;;;;;5099231;28;20028;-76
2023/05/22 03:32:28;;;;;;;4.63;3.40;;;;;;;;;;5096582;28;20028;-76
2023/05/22 03:34:53;;;;;;;5.75;3.85;;;;;;;;;;5099742;28;20420;-77
2023/05/22 03:37:19;;;;;;;8.13;3.28;;;;;;;;;;5100870;28;20432;-75
2023/05/22 03:39:44;;;;;;;6.20;3.45;;;;;;;;;;5117601;28;20098;-77
2023/05/22 03:42:12;;;;;;;9.52;3.45;;;;;;;;;;5119288;28;20107;-76
2023/05/22 03:44:37;;;;;;;7.10;3.58;;;;;;;;;;5119174;28;20040;-77
2023/05/22 03:47:03;;;;;;;5.22;3.38;;;;;;;;;;5118258;28;20020;-75
2023/05/22 03:49:28;;;;;;;7.60;3.67;;;;;;;;;;5120189;28;20027;-77
2023/05/22 03:51:54;;;;;;;21.20;8.05;;;;;;;;;;5118176;28;20051;-74
2023/05/22 03:54:19;;;;;;;14.82;5.15;;;;;;;;;;5119406;28;20024;-76
2023/05/22 03:56:45;;;;;;;7.50;4.22;;;;;;;;;;5117320;28;20035;-75
2023/05/22 03:59:10;;;;;;;19.70;6.90;;;;;;;;;;5118931;28;20427;-75
2023/05/22 04:01:38;;;;;;;9.13;3.50;;;;;;;;;;5118098;28;20350;-77
2023/05/22 04:04:04;;;;;;;7.47;4.47;;;;;;;;;;5118533;28;20093;-77
2023/05/22 04:06:31;;;;;;;4.55;3.22;;;;;;;;;;5118383;28;20376;-76
2023/05/22 04:08:57;;;;;;;6.80;3.90;;;;;;;;;;5119688;28;20032;-73
2023/05/22 04:11:23;;;;;;;8.18;3.60;;;;;;;;;;5117705;27;20331;-76
2023/05/22 04:13:49;;;;;;;7.22;3.60;;;;;;;;;;5118741;28;20020;-74
2023/05/22 04:16:16;;;;;;;9.13;3.92;;;;;;;;;;5118380;28;20020;-70
2023/05/22 04:18:41;;;;;;;7.45;3.72;;;;;;;;;;5118626;28;20023;-74
2023/05/22 04:21:08;;;;;;;6.07;3.28;;;;;;;;;;5119601;28;20122;-77
2023/05/22 04:23:34;;;;;;;5.07;3.60;;;;;;;;;;5097233;28;20496;-76
2023/05/22 04:26:01;;;;;;;6.35;3.80;;;;;;;;;;5098118;28;20040;-76
2023/05/22 04:28:29;;;;;;;8.93;3.65;;;;;;;;;;5096249;28;20028;-75
2023/05/22 04:30:56;;;;;;;9.63;3.45;;;;;;;;;;5095868;28;20020;-74
2023/05/22 04:33:23;;;;;;;5.60;3.80;;;;;;;;;;5096963;28;20480;-76
2023/05/22 04:35:49;;;;;;;10.65;3.75;;;;;;;;;;5097378;28;20107;-73
2023/05/22 04:38:17;;;;;;;9.18;3.40;;;;;;;;;;5104010;28;20030;-75
2023/05/22 04:40:43;;;;;;;6.90;3.78;;;;;;;;;;5118443;28;20023;-72
2023/05/22 04:43:09;;;;;;;6.18;3.47;;;;;;;;;;5117158;28;20168;-75
2023/05/22 04:45:34;;;;;;;7.43;3.80;;;;;;;;;;5115942;27;20126;-77
2023/05/22 04:48:01;;;;;;;7.18;3.63;;;;;;;;;;5116720;28;20031;-72
2023/05/22 04:50:29;;;;;;;12.43;3.85;;;;;;;;;;5116403;28;20015;-75
2023/05/22 04:52:54;;;;;;;9.07;3.90;;;;;;;;;;5117297;28;20057;-77
2023/05/22 04:55:21;;;;;;;5.43;3.38;;;;;;;;;;5118544;27;20069;-75
2023/05/22 04:57:46;;;;;;;8.60;3.78;;;;;;;;;;5117307;28;20074;-76
2023/05/22 05:00:13;;;;;;;9.93;3.90;;;;;;;;;;5116037;28;20020;-75
2023/05/22 05:02:39;;;;;;;7.80;3.90;;;;;;;;;;5117593;28;20055;-72
2023/05/22 05:05:05;;;;;;;7.78;3.58;;;;;;;;;;5116316;28;20031;-73
2023/05/22 05:07:30;;;;;;;7.13;3.88;;;;;;;;;;5116178;28;20020;-76
2023/05/22 05:09:56;;;;;;;6.07;3.72;;;;;;;;;;5116295;28;20103;-77
2023/05/22 05:12:21;;;;;;;7.10;3.50;;;;;;;;;;5116936;28;20107;-74
2023/05/22 05:14:47;;;;;;;8.77;3.15;;;;;;;;;;5116537;28;20053;-76
2023/05/22 05:17:13;;;;;;;7.75;3.35;;;;;;;;;;5116587;28;20027;-76
2023/05/22 05:19:38;;;;;;;10.32;4.13;;;;;;;;;;5117693;28;20028;-77
2023/05/22 05:22:04;;;;;;;8.85;4.15;;;;;;;;;;5108369;28;20028;-77
2023/05/22 05:24:29;;;;;;;7.20;3.45;;;;;;;;;;5089869;28;20021;-66
2023/05/22 05:26:55;;;;;;;8.93;3.40;;;;;;;;;;5084969;28;20416;-76
2023/05/22 05:29:20;;;;;;;5.85;3.45;;;;;;;;;;5093662;28;20016;-68
2023/05/22 05:31:46;;;;;;;7.35;4.35;;;;;;;;;;5093884;28;20020;-65
2023/05/22 05:34:12;;;;;;;6.75;3.88;;;;;;;;;;5093617;28;20429;-76
2023/05/22 05:36:37;;;;;;;5.75;3.13;;;;;;;;;;5094489;28;21323;-76
2023/05/22 05:39:03;;;;;;;7.40;3.80;;;;;;;;;;5096489;28;20051;-72
2023/05/22 05:41:28;;;;;;;6.07;3.42;;;;;;;;;;5096542;28;20027;-71
2023/05/22 05:43:56;;;;;;;8.30;4.18;;;;;;;;;;5094440;28;20036;-64
2023/05/22 05:46:21;;;;;;;12.95;3.85;;;;;;;;;;5106956;28;20027;-72
2023/05/22 05:48:47;;;;;;;5.95;3.72;;;;;;;;;;5096667;28;20487;-74
2023/05/22 05:51:12;;;;;;;7.68;3.83;;;;;;;;;;5104243;28;20477;-74
2023/05/22 05:53:39;;;;;;;11.95;4.30;;;;;;;;;;5101892;28;20375;-75
2023/05/22 05:56:06;;;;;;;9.10;3.83;;;;;;;;;;5100738;28;20032;-73
2023/05/22 05:58:31;;;;;;;11.77;3.88;;;;;;;;;;5094126;28;20101;-76
2023/05/22 06:00:57;;;;;;;12.05;4.10;;;;;;;;;;5106464;28;20475;-73
2023/05/22 06:03:24;;;;;;;9.40;3.90;;;;;;;;;;5099397;28;20473;-76
2023/05/22 06:05:50;;;;;;;13.60;4.22;;;;;;;;;;5110992;28;20035;-73
2023/05/22 06:08:15;;;;;;;8.77;3.80;;;;;;;;;;5110805;28;20031;-74
2023/05/22 06:10:40;;;;;;;9.38;4.15;;;;;;;;;;5110842;28;20418;-74
2023/05/22 06:13:06;;;;;;;9.45;4.05;;;;;;;;;;5108442;28;20027;-76
2023/05/22 06:15:32;;;;;;;10.57;4.38;;;;;;;;;;5090214;28;20023;-75
2023/05/22 06:17:58;;;;;;;8.45;4.05;;;;;;;;;;5090859;28;20032;-76
2023/05/22 06:20:24;;;;;;;6.82;3.90;;;;;;;;;;5090022;28;20497;-70
2023/05/22 06:22:50;;;;;;;12.00;5.00;;;;;;;;;;5088972;28;20028;-70
2023/05/22 06:25:15;;;;;;;8.48;4.22;;;;;;;;;;5088954;28;20036;-67
2023/05/22 06:27:41;;;;;;;17.00;5.38;;;;;;;;;;5088974;28;20115;-69
2023/05/22 06:30:07;;;;;;;17.85;4.03;;;;;;;;;;5088897;28;20492;-72
2023/05/22 06:32:33;;;;;;;8.68;3.72;;;;;;;;;;5089584;28;20516;-64
2023/05/22 06:34:58;;;;;;;8.52;4.35;;;;;;;;;;5093878;28;20112;-74
2023/05/22 06:37:24;;;;;;;8.05;3.45;;;;;;;;;;5090699;28;20028;-76
2023/05/22 06:39:49;;;;;;;12.18;3.90;;;;;;;;;;5100293;28;20031;-76
2023/05/22 06:42:15;;;;;;;11.40;3.95;;;;;;;;;;5091941;28;20448;-76
2023/05/22 06:44:40;;;;;;;12.48;4.15;;;;;;;;;;5092318;28;20036;-76
2023/05/22 06:47:06;;;;;;;11.95;4.13;;;;;;;;;;5093293;28;20565;-74
2023/05/22 06:49:31;;;;;;;7.13;3.40;;;;;;;;;;5101089;28;20039;-76
2023/05/22 06:51:56;;;;;;;7.28;3.70;;;;;;;;;;5093440;28;20057;-75
2023/05/22 06:54:22;;;;;;;9.75;3.50;;;;;;;;;;5090706;28;20028;-76
2023/05/22 06:56:47;;;;;;;10.45;3.72;;;;;;;;;;5094880;28;20497;-75
2023/05/22 06:59:13;;;;;;;12.10;3.95;;;;;;;;;;5092665;28;20054;-75
2023/05/22 07:01:38;;;;;;;6.95;3.58;;;;;;;;;;5092745;28;20354;-67
2023/05/22 07:04:04;;;;;;;13.25;4.35;;;;;;;;;;5090999;28;20077;-65
2023/05/22 07:06:37;;;;;;;11.80;4.15;;;;;;;;;;5081688;28;20044;-64
2023/05/22 07:09:06;;;;;;;13.50;4.20;;;;;;;;;;5089407;28;20491;-65
2023/05/22 07:11:32;;;;;;;7.50;3.80;;;;;;;;;;5089202;28;20087;-76
2023/05/22 07:13:57;;;;;;;14.30;4.15;;;;;;;;;;5094204;28;20368;-74
2023/05/22 07:16:24;;;;;;;8.65;3.78;;;;;;;;;;5103065;28;20024;-73
2023/05/22 07:18:49;;;;;;;8.50;3.67;;;;;;;;;;5095897;28;20052;-69
2023/05/22 07:21:15;;;;;;;12.02;3.65;;;;;;;;;;5095481;28;20341;-73
2023/05/22 07:23:40;;;;;;;9.43;3.92;;;;;;;;;;5107564;28;20110;-76
2023/05/22 07:26:06;;;;;;;11.20;4.05;;;;;;;;;;5095417;28;20030;-80
2023/05/22 07:28:32;;;;;;;12.38;3.90;;;;;;;;;;5100017;28;20103;-75
2023/05/22 07:30:58;;;;;;;9.95;3.80;;;;;;;;;;5101238;28;20130;-75
2023/05/22 07:33:24;;;;;;;10.10;4.03;;;;;;;;;;5098690;28;20031;-79
2023/05/22 07:35:50;;;;;;;11.45;3.70;;;;;;;;;;5105018;28;20392;-74
2023/05/22 07:38:16;;;;;;;12.93;3.65;;;;;;;;;;5110908;28;20055;-74
2023/05/22 07:40:41;;;;;;;6.85;3.55;;;;;;;;;;5111225;28;20158;-74
2023/05/22 07:43:07;;;;;;;10.75;3.50;;;;;;;;;;5101475;28;20028;-74
2023/05/22 07:45:32;;;;;;;8.93;3.38;;;;;;;;;;5103152;28;20051;-64
2023/05/22 07:48:00;;;;;;;8.63;3.75;;;;;;;;;;5094565;28;20035;-66
2023/05/22 07:50:25;;;;;;;10.15;3.65;;;;;;;;;;5107393;28;20065;-65
2023/05/22 07:52:51;;;;;;;5.47;3.40;;;;;;;;;;5097505;28;20074;-78
2023/05/22 07:55:16;;;;;;;12.65;3.78;;;;;;;;;;5108416;28;20074;-73
2023/05/22 07:57:42;;;;;;;5.93;3.13;;;;;;;;;;5096923;28;20095;-78
2023/05/22 08:00:12;;;;;;;10.65;3.50;;;;;;;;;;5107746;28;20028;-75
2023/05/22 08:02:38;;;;;;;13.52;3.47;;;;;;;;;;5096717;28;20043;-74
2023/05/22 08:05:04;;;;;;;11.32;3.65;;;;;;;;;;5107119;28;20036;-78
2023/05/22 08:07:31;;;;;;;6.47;3.15;;;;;;;;;;5087767;28;20041;-74
2023/05/22 08:09:57;;;;;;;8.27;3.70;;;;;;;;;;5081250;28;20036;-77
2023/05/22 08:12:22;;;;;;;15.02;3.38;;;;;;;;;;5089952;28;20016;-76
2023/05/22 08:14:48;;;;;;;9.45;2.95;;;;;;;;;;5107171;28;20097;-80
2023/05/22 08:17:13;;;;;;;9.57;3.20;;;;;;;;;;5105983;28;20024;-78
2023/05/22 08:19:39;;;;;;;14.00;3.25;;;;;;;;;;5099637;28;20024;-78
2023/05/22 08:22:04;;;;;;;9.50;3.35;;;;;;;;;;5104634;28;20107;-77
2023/05/22 08:24:30;;;;;;;11.05;3.05;;;;;;;;;;5108890;27;20440;-73
2023/05/22 08:26:57;;;;;;;6.55;2.90;;;;;;;;;;5101738;28;20035;-66
2023/05/22 08:29:23;;;;;;;5.90;2.97;;;;;;;;;;5101250;28;20414;-68
2023/05/22 08:31:48;;;;;;;7.53;2.85;;;;;;;;;;5108060;28;20087;-73
2023/05/22 08:34:14;;;;;;;7.88;3.17;;;;;;;;;;5096265;28;20024;-69
2023/05/22 08:36:39;;;;;;;10.88;3.15;;;;;;;;;;5112390;28;20168;-69
2023/05/22 08:39:06;;;;;;;7.00;2.83;;;;;;;;;;5112206;28;20110;-74
2023/05/22 08:41:32;;;;;;;11.65;3.22;;;;;;;;;;5112794;28;20489;-70
2023/05/22 08:43:57;;;;;;;18.17;3.60;;;;;;;;;;5095726;28;20067;-74
2023/05/22 08:46:27;;;;;;;13.13;3.00;;;;;;;;;;5079241;28;20035;-74
2023/05/22 08:48:57;;;;;;;5.93;2.97;;;;;;;;;;5104808;28;20477;-76
2023/05/22 08:51:27;;;;;;;9.10;3.13;;;;;;;;;;5103890;28;20028;-73
2023/05/22 08:53:55;;;;;;;9.93;2.63;;;;;;;;;;5096517;28;20020;-77
2023/05/22 08:56:20;;;;;;;6.97;2.53;;;;;;;;;;5104237;28;20461;-73
2023/05/22 08:58:47;;;;;;;6.72;2.30;;;;;;;;;;5105792;28;20028;-71
2023/05/22 09:01:13;;;;;;;7.10;2.72;;;;;;;;;;5102460;28;20024;-72
2023/05/22 09:03:38;;;;;;;6.15;2.20;;;;;;;;;;5098648;27;20035;-72
2023/05/22 09:06:08;;;;;;;4.25;2.28;;;;;;;;;;5108725;28;20119;-74
2023/05/22 09:08:33;;;;;;;7.15;2.10;;;;;;;;;;5097221;28;20042;-77
2023/05/22 09:11:02;;;;;;;4.38;2.42;;;;;;;;;;5103806;28;20032;-74
2023/05/22 09:13:30;;;;;;;6.85;2.33;;;;;;;;;;5103987;28;20492;-73
2023/05/22 09:16:02;;;;;;;3.90;2.20;;;;;;;;;;5096718;28;20557;-73
2023/05/22 09:18:29;;;;;;;7.00;2.70;;;;;;;;;;5079670;28;20019;-68
2023/05/22 09:20:58;;;;;;;6.30;2.40;;;;;;;;;;5104473;28;20021;-72
2023/05/22 09:23:26;;;;;;;8.60;2.53;;;;;;;;;;5086011;28;20031;-65
2023/05/22 09:25:59;;;;;;;3.40;2.00;;;;;;;;;;5096547;28;20032;-73
2023/05/22 09:28:25;;;;;;;5.68;2.75;;;;;;;;;;5079240;28;20256;-72
2023/05/22 09:30:53;;;;;;;8.38;2.42;;;;;;;;;;5104395;28;20027;-70
2023/05/22 09:33:19;;;;;;;6.63;2.60;;;;;;;;;;5096784;28;20027;-71
2023/05/22 09:35:46;;;;;;;5.93;2.05;;;;;;;;;;5091549;28;20395;-76
2023/05/22 09:38:12;;;;;;;4.80;2.50;;;;;;;;;;5107948;28;20035;-69
2023/05/22 09:40:38;;;;;;;3.58;1.80;;;;;;;;;;5111760;28;20529;-73
2023/05/22 09:43:07;;;;;;;3.03;2.20;;;;;;;;;;5102558;28;20031;-76
2023/05/22 09:45:37;;;;;;;5.47;2.53;;;;;;;;;;5109343;28;20047;-83
2023/05/22 09:48:04;;;;;;;4.85;2.17;;;;;;;;;;5100896;28;20031;-80
2023/05/22 09:50:30;;;;;;;4.25;2.50;;;;;;;;;;5108370;28;20020;-78
2023/05/22 09:52:56;;;;;;;3.33;1.90;;;;;;;;;;5102491;28;20453;-73
2023/05/22 09:55:22;;;;;;;3.83;2.00;;;;;;;;;;5103766;28;20023;-79
2023/05/22 09:57:51;;;;;;;5.78;2.30;;;;;;;;;;5098026;28;20024;-78
2023/05/22 10:00:24;;;;;;;5.20;2.70;;;;;;;;;;5112240;28;20023;-76
2023/05/22 10:02:57;;;;;;;2.92;2.10;;;;;;;;;;5102117;28;20032;-78
2023/05/22 10:05:30;;;;;;;4.57;2.40;;;;;;;;;;5099802;28;20059;-74
2023/05/22 10:08:01;;;;;;;3.70;2.53;;;;;;;;;;5110375;28;20081;-78
2023/05/22 10:10:26;;;;;;;5.13;2.20;;;;;;;;;;5097220;28;20015;-79
2023/05/22 10:12:56;;;;;;;9.70;2.80;;;;;;;;;;5107271;28;20111;-73
2023/05/22 10:15:25;;;;;;;3.75;2.30;;;;;;;;;;5106584;28;20376;-74
2023/05/22 10:17:51;;;;;;;3.97;2.30;;;;;;;;;;5096682;28;20191;-71
2023/05/22 10:20:16;;;;;;;4.70;2.58;;;;;;;;;;5112917;28;20505;-69
2023/05/22 10:22:47;;;;;;;5.38;2.42;;;;;;;;;;5098367;28;20024;-68
2023/05/22 10:25:13;;;;;;;4.00;2.47;;;;;;;;;;5101703;28;20101;-68
2023/05/22 10:27:39;;;;;;;3.90;2.10;;;;;;;;;;5105527;28;20031;-76
2023/05/22 10:30:32;;;;;;;4.35;2.10;;;;;;;;;;5094899;28;20032;-74
2023/05/22 10:33:10;;;;;;;6.70;2.75;;;;;;;;;;5100113;28;20036;-76
2023/05/22 10:35:39;;;;;;;3.30;2.35;;;;;;;;;;5103011;28;20176;-68
2023/05/22 10:38:13;;;;;;;3.83;2.30;;;;;;;;;;5109244;28;20031;-70
2023/05/22 10:40:40;;;;;;;4.30;1.80;;;;;;;;;;5110800;28;20038;-69
2023/05/22 10:43:06;;;;;;;5.32;2.40;;;;;;;;;;5100875;27;20510;-67
2023/05/22 10:45:31;;;;;;;3.92;2.22;;;;;;;;;;5103221;28;20142;-72
2023/05/22 10:48:07;;;;;;;3.83;2.33;;;;;;;;;;5093164;28;20031;-69
2023/05/22 10:50:34;;;;;;;5.90;2.25;;;;;;;;;;5091335;28;20023;-71
2023/05/22 10:53:24;;;;;;;5.60;2.47;;;;;;;;;;5089354;28;20073;-70
2023/05/22 10:55:53;;;;;;;3.58;2.08;;;;;;;;;;5088659;28;20024;-71
2023/05/22 10:58:55;;;;;;;5.47;2.17;;;;;;;;;;5091274;28;20019;-66
2023/05/22 11:01:24;;;;;;;3.45;2.15;;;;;;;;;;5089569;28;20268;-69
2023/05/22 11:03:57;;;;;;;5.40;2.30;;;;;;;;;;5093821;28;20056;-72
2023/05/22 11:06:55;;;;;;;5.28;2.30;;;;;;;;;;5094828;28;20524;-72
2023/05/22 11:09:32;;;;;;;6.38;2.60;;;;;;;;;;5098641;28;20024;-65
2023/05/22 11:12:23;;;;;;;6.90;1.80;;;;;;;;;;5092549;28;20035;-64
2023/05/22 11:14:57;;;;;;;5.55;2.50;;;;;;;;;;5103090;28;20017;-67
2023/05/22 11:17:30;;;;;;;7.57;2.60;;;;;;;;;;5101640;28;20024;-66
2023/05/22 11:20:11;;;;;;;8.20;2.70;;;;;;;;;;5093885;28;20024;-70
2023/05/22 11:22:43;;;;;;;3.10;2.33;;;;;;;;;;5087633;28;20038;-64
2023/05/22 11:25:10;;;;;;;5.85;2.10;;;;;;;;;;5087848;28;20098;-64
2023/05/22 11:27:38;;;;;;;5.22;2.20;;;;;;;;;;5093387;28;20063;-71
2023/05/22 11:30:04;;;;;;;5.47;2.70;;;;;;;;;;5106793;28;20028;-66
2023/05/22 11:32:29;;;;;;;5.45;2.55;;;;;;;;;;5094260;28;20019;-64
2023/05/22 11:34:56;;;;;;;4.00;2.55;;;;;;;;;;5102118;28;20040;-66
2023/05/22 11:37:22;;;;;;;3.28;2.53;;;;;;;;;;5101461;28;20024;-70
2023/05/22 11:39:55;;;;;;;5.75;2.30;;;;;;;;;;5109245;28;20042;-65
2023/05/22 11:42:21;;;;;;;5.82;2.33;;;;;;;;;;5106759;28;20020;-67
2023/05/22 11:44:47;;;;;;;5.68;2.15;;;;;;;;;;5099321;27;20097;-67
2023/05/22 11:47:13;;;;;;;5.47;2.72;;;;;;;;;;5103563;28;20024;-65
2023/05/22 11:49:42;;;;;;;4.68;1.90;;;;;;;;;;5108647;28;20055;-66
2023/05/22 11:52:09;;;;;;;3.97;2.50;;;;;;;;;;5095633;28;20458;-65
2023/05/22 11:54:35;;;;;;;8.65;2.30;;;;;;;;;;5093668;28;20024;-65
2023/05/22 11:57:06;;;;;;;5.47;2.60;;;;;;;;;;5111082;28;20465;-65
2023/05/22 11:59:32;;;;;;;6.28;2.75;;;;;;;;;;5113668;28;20084;-65
2023/05/22 12:01:58;;;;;;;4.25;2.10;;;;;;;;;;5113795;28;20028;-65
2023/05/22 12:04:24;;;;;;;5.38;2.55;;;;;;;;;;5113918;28;20019;-66
2023/05/22 12:06:50;;;;;;;3.95;2.35;;;;;;;;;;5113819;28;20024;-65
2023/05/22 12:09:15;;;;;;;3.95;2.22;;;;;;;;;;5113661;28;20491;-65
2023/05/22 12:11:46;;;;;;;3.58;2.03;;;;;;;;;;5113581;28;20089;-65
2023/05/22 12:14:12;;;;;;;6.72;2.38;;;;;;;;;;5113500;28;20098;-64
2023/05/22 12:16:37;;;;;;;5.93;2.25;;;;;;;;;;5112107;28;20437;-65
2023/05/22 12:19:10;;;;;;;4.82;2.30;;;;;;;;;;5092918;28;20049;-65
2023/05/22 12:21:42;;;;;;;5.47;2.42;;;;;;;;;;5094143;28;20166;-65
2023/05/22 12:24:09;;;;;;;8.05;2.60;;;;;;;;;;5092916;28;20095;-65
2023/05/22 12:26:35;;;;;;;4.88;2.10;;;;;;;;;;5089833;28;20388;-65
2023/05/22 12:29:01;;;;;;;5.68;2.40;;;;;;;;;;5072661;28;20020;-67
2023/05/22 12:31:27;;;;;;;4.40;1.83;;;;;;;;;;5072714;28;20016;-66
2023/05/22 12:33:56;;;;;;;6.85;2.40;;;;;;;;;;5081595;28;20391;-66
2023/05/22 12:36:38;;;;;;;6.32;2.20;;;;;;;;;;5091439;28;20012;-67
2023/05/22 12:39:10;;;;;;;5.35;2.20;;;;;;;;;;5101311;28;20035;-67
2023/05/22 12:41:36;;;;;;;4.20;2.10;;;;;;;;;;5092075;28;20024;-66
2023/05/22 12:44:02;;;;;;;4.95;2.10;;;;;;;;;;5091643;28;20036;-66
2023/05/22 12:46:34;;;;;;;4.65;2.20;;;;;;;;;;5092748;28;20515;-67
2023/05/22 12:49:00;;;;;;;6.00;2.65;;;;;;;;;;5092538;28;20043;-68
2023/05/22 12:51:30;;;;;;;7.30;2.17;;;;;;;;;;5092419;28;20024;-68
2023/05/22 12:53:58;;;;;;;;;;;;;;;;;;5092922;28;20020;-64
2023/05/22 12:56:24;;;;;;;3.60;2.40;;;;;;;;;;5104095;28;19957;-66
2023/05/22 12:58:50;;;;;;;4.60;2.33;;;;;;;;;;5088093;28;20481;-67
2023/05/22 13:01:15;;;;;;;6.90;2.35;;;;;;;;;;5092268;28;20064;-67
2023/05/22 13:03:41;;;;;;;3.63;2.03;;;;;;;;;;5092702;28;20024;-71
2023/05/22 13:06:07;;;;;;;7.80;2.50;;;;;;;;;;5091975;28;20465;-71
2023/05/22 13:08:32;;;;;;;5.38;2.20;;;;;;;;;;5091052;28;20478;-70
2023/05/22 13:10:58;;;;;;;5.00;2.30;;;;;;;;;;5092693;28;20469;-68
2023/05/22 13:13:23;;;;;;;2.75;1.90;;;;;;;;;;5091627;28;20032;-70
2023/05/22 13:15:49;;;;;;;4.20;1.73;;;;;;;;;;5092190;28;20055;-68
2023/05/22 13:18:15;;;;;;;6.47;2.00;;;;;;;;;;5092039;28;20039;-67
2023/05/22 13:20:41;;;;;;;4.55;2.30;;;;;;;;;;5091944;28;20446;-67
2023/05/22 13:23:07;;;;;;;4.45;2.60;;;;;;;;;;5092096;28;20032;-64
2023/05/22 13:25:32;;;;;;;5.47;2.03;;;;;;;;;;5091307;28;20035;-65
2023/05/22 13:27:59;;;;;;;6.10;2.50;;;;;;;;;;5091271;28;20024;-69
2023/05/22 13:30:24;;;;;;;6.25;2.10;;;;;;;;;;5091866;28;20069;-70
2023/05/22 13:32:50;;;;;;;5.97;2.35;;;;;;;;;;5091621;28;20020;-69
2023/05/22 13:35:16;;;;;;;8.35;2.35;;;;;;;;;;5090939;28;20051;-67
2023/05/22 13:37:41;;;;;;;2.67;1.77;;;;;;;;;;5090566;28;20016;-65
2023/05/22 13:40:07;;;;;;;5.25;2.50;;;;;;;;;;5093436;28;20111;-66
2023/05/22 13:42:33;;;;;;;4.45;2.60;;;;;;;;;;5090659;28;20065;-66
2023/05/22 13:44:59;;;;;;;3.97;2.30;;;;;;;;;;5090920;28;20453;-69
2023/05/22 13:47:24;;;;;;;5.40;2.53;;;;;;;;;;5090991;28;20016;-69
2023/05/22 13:49:50;;;;;;;5.70;2.25;;;;;;;;;;5091401;28;20020;-71
2023/05/22 13:52:16;;;;;;;5.57;2.45;;;;;;;;;;5090766;28;20036;-71
2023/05/22 13:54:42;;;;;;;5.15;2.22;;;;;;;;;;5090107;28;20389;-68
2023/05/22 13:57:07;;;;;;;6.90;2.20;;;;;;;;;;5092374;28;20024;-67
2023/05/22 13:59:32;;;;;;;5.28;2.25;;;;;;;;;;5090170;28;20488;-72
2023/05/22 14:01:58;;;;;;;3.17;2.25;;;;;;;;;;5089887;28;20095;-70
2023/05/22 14:04:24;;;;;;;3.70;2.15;;;;;;;;;;5089934;28;20088;-71
2023/05/22 14:06:49;;;;;;;5.13;2.58;;;;;;;;;;5089058;28;20422;-71
2023/05/22 14:09:16;;;;;;;4.82;1.80;;;;;;;;;;5090110;28;20485;-71
2023/05/22 14:11:41;;;;;;;5.10;2.20;;;;;;;;;;5089463;28;20016;-71
2023/05/22 14:14:06;;;;;;;4.72;2.30;;;;;;;;;;5089670;28;20024;-72
2023/05/22 14:16:32;;;;;;;5.35;2.00;;;;;;;;;;5089785;28;20027;-70
2023/05/22 14:18:59;;;;;;;8.45;2.50;;;;;;;;;;5089609;28;20032;-71
2023/05/22 14:21:24;;;;;;;3.40;2.33;;;;;;;;;;5089378;28;20047;-71
2023/05/22 14:23:50;;;;;;;3.50;2.58;;;;;;;;;;5089677;28;20108;-71
2023/05/22 14:26:15;;;;;;;5.28;2.30;;;;;;;;;;5089248;28;20032;-71
2023/05/22 14:28:41;;;;;;;8.65;2.60;;;;;;;;;;5089740;28;20103;-72
2023/05/22 14:31:06;;;;;;;4.78;2.50;;;;;;;;;;5089525;28;20335;-67
2023/05/22 14:33:32;;;;;;;3.83;2.22;;;;;;;;;;5089598;28;20016;-67
2023/05/22 14:35:57;;;;;;;3.78;2.30;;;;;;;;;;5089059;28;20433;-67
2023/05/22 14:38:23;;;;;;;4.45;2.15;;;;;;;;;;5091226;28;20038;-71
2023/05/22 14:40:48;;;;;;;3.63;2.60;;;;;;;;;;5089068;28;20020;-71